createdAt,value
2023-03-01T00:04:39.520Z,0.20
2023-03-01T00:11:28.190Z,0.30
2023-03-01T00:18:10.806Z,0.30
2023-03-01T00:24:53.084Z,0.30
2023-03-01T00:31:35.476Z,0.10
2023-03-01T00:38:17.804Z,0.00
2023-03-01T00:45:00.115Z,0.10
2023-03-01T00:51:42.687Z,-0.10
2023-03-01T00:58:25.382Z,-0.20
2023-03-01T01:05:08.124Z,-0.30
2023-03-01T01:11:51.903Z,-0.50
2023-03-01T01:18:35.316Z,-0.60
2023-03-01T01:25:17.834Z,-0.60
2023-03-01T01:32:00.248Z,-0.60
2023-03-01T01:38:43.336Z,-0.50
2023-03-01T01:45:35.311Z,-0.30
2023-03-01T01:52:23.760Z,-0.20
2023-03-01T01:59:06.437Z,0.00
2023-03-01T02:06:01.866Z,0.00
2023-03-01T02:12:44.850Z,0.20
2023-03-01T02:19:51.248Z,0.30
2023-03-01T02:26:53.839Z,0.40
2023-03-01T02:33:38.600Z,0.30
2023-03-01T02:40:22.507Z,0.60
2023-03-01T02:47:07.027Z,0.70
2023-03-01T02:54:11.204Z,0.80
2023-03-01T03:00:53.683Z,0.70
2023-03-01T03:07:38.674Z,0.80
2023-03-01T03:14:21.141Z,0.80
2023-03-01T03:21:11.249Z,0.80
2023-03-01T03:27:57.527Z,0.80
2023-03-01T03:34:39.851Z,0.80
2023-03-01T03:41:22.388Z,0.80
2023-03-01T03:48:06.709Z,0.90
2023-03-01T03:54:48.965Z,0.90
2023-03-01T04:01:31.276Z,0.80
2023-03-01T04:08:14.263Z,0.90
2023-03-01T04:14:56.563Z,0.90
2023-03-01T04:21:38.951Z,0.90
2023-03-01T04:28:25.432Z,0.90
2023-03-01T04:35:08.164Z,0.90
2023-03-01T04:41:50.450Z,0.90
2023-03-01T04:48:33.675Z,1.00
2023-03-01T04:55:16.609Z,1.00
2023-03-01T05:01:58.934Z,1.00
2023-03-01T05:08:42.634Z,1.00
2023-03-01T05:15:29.968Z,1.20
2023-03-01T05:22:12.536Z,1.20
2023-03-01T05:28:59.441Z,1.10
2023-03-01T05:35:43.573Z,1.10
2023-03-01T05:42:25.965Z,1.10
2023-03-01T05:49:08.358Z,1.10
2023-03-01T05:55:50.825Z,1.10
2023-03-01T06:02:33.118Z,1.10
2023-03-01T06:09:15.436Z,1.10
2023-03-01T06:15:57.807Z,1.10
2023-03-01T06:22:40.508Z,1.10
2023-03-01T06:29:23.539Z,1.20
2023-03-01T06:36:06.385Z,1.30
2023-03-01T06:42:50.882Z,1.20
2023-03-01T06:49:33.206Z,1.30
2023-03-01T06:56:15.484Z,1.40
2023-03-01T07:03:01.457Z,1.70
2023-03-01T07:09:43.809Z,1.40
2023-03-01T07:16:26.181Z,1.60
2023-03-01T07:23:08.547Z,2.00
2023-03-01T07:29:50.803Z,2.40
2023-03-01T07:36:33.280Z,3.60
2023-03-01T07:43:15.634Z,5.90
2023-03-01T07:49:57.978Z,7.00
2023-03-01T07:56:41.669Z,8.10
2023-03-01T08:03:24.029Z,7.20
2023-03-01T08:10:06.967Z,7.80
2023-03-01T08:16:50.995Z,7.90
2023-03-01T08:23:33.670Z,9.10
2023-03-01T08:30:16.442Z,10.50
2023-03-01T08:36:59.125Z,10.40
2023-03-01T08:44:31.804Z,9.60
2023-03-01T08:51:17.258Z,9.70
2023-03-01T08:58:00.484Z,9.40
2023-03-01T09:04:43.103Z,9.70
2023-03-01T09:11:25.735Z,9.70
2023-03-01T09:18:08.049Z,9.50
2023-03-01T09:24:50.313Z,9.50
2023-03-01T09:31:32.669Z,11.40
2023-03-01T09:38:15.184Z,12.10
2023-03-01T09:45:04.457Z,11.20
2023-03-01T09:51:56.372Z,10.80
2023-03-01T09:58:48.718Z,10.60
2023-03-01T10:06:02.014Z,11.90
2023-03-01T10:12:45.680Z,14.40
2023-03-01T10:19:37.493Z,15.00
2023-03-01T10:26:38.343Z,13.90
2023-03-01T10:33:31.985Z,14.80
2023-03-01T10:40:14.417Z,13.80
2023-03-01T10:47:02.085Z,14.40
2023-03-01T10:53:50.451Z,13.70
2023-03-01T11:00:33.769Z,12.20
2023-03-01T11:07:16.157Z,10.80
2023-03-01T11:14:25.126Z,9.50
2023-03-01T11:21:09.689Z,9.70
2023-03-01T11:27:54.151Z,8.60
2023-03-01T11:35:02.828Z,8.20
2023-03-01T11:41:53.109Z,7.50
2023-03-01T11:49:14.277Z,7.60
2023-03-01T11:56:34.930Z,7.90
2023-03-01T12:03:48.269Z,8.00
2023-03-01T12:10:53.404Z,8.20
2023-03-01T12:17:48.861Z,8.20
2023-03-01T12:24:57.165Z,8.10
2023-03-01T12:31:56.236Z,8.30
2023-03-01T12:38:44.148Z,8.30
2023-03-01T12:45:40.961Z,8.50
2023-03-01T12:52:44.966Z,8.60
2023-03-01T13:00:08.609Z,8.80
2023-03-01T13:07:22.450Z,8.90
2023-03-01T13:14:25.013Z,8.80
2023-03-01T13:21:08.101Z,8.80
2023-03-01T13:27:50.387Z,8.70
2023-03-01T13:34:42.179Z,8.80
2023-03-01T13:41:40.001Z,8.60
2023-03-01T13:48:29.589Z,8.60
2023-03-01T13:55:14.597Z,8.60
2023-03-01T14:01:59.738Z,8.90
2023-03-01T14:08:43.114Z,8.70
2023-03-01T14:16:07.805Z,8.30
2023-03-01T14:22:54.685Z,8.40
2023-03-01T14:29:39.071Z,8.40
2023-03-01T14:36:28.022Z,8.60
2023-03-01T14:43:12.961Z,8.50
2023-03-01T14:50:00.499Z,8.50
2023-03-01T14:56:48.307Z,8.60
2023-03-01T15:03:48.240Z,8.60
2023-03-01T15:10:36.759Z,8.60
2023-03-01T15:17:39.969Z,8.50
2023-03-01T15:24:26.386Z,8.50
2023-03-01T15:31:26.881Z,8.50
2023-03-01T15:38:29.502Z,8.50
2023-03-01T15:45:21.697Z,8.40
2023-03-01T15:52:05.203Z,8.30
2023-03-01T15:58:49.070Z,8.30
2023-03-01T16:05:35.240Z,8.30
2023-03-01T16:12:17.754Z,8.30
2023-03-01T16:19:00.309Z,8.20
2023-03-01T16:25:42.664Z,8.10
2023-03-01T16:32:25.094Z,8.00
2023-03-01T16:39:08.498Z,7.90
2023-03-01T16:45:51.129Z,7.80
2023-03-01T16:52:34.877Z,7.70
2023-03-01T16:59:20.245Z,7.50
2023-03-01T17:06:05.297Z,7.30
2023-03-01T17:12:50.486Z,7.10
2023-03-01T17:19:32.865Z,6.90
2023-03-01T17:26:15.292Z,6.70
2023-03-01T17:32:57.676Z,6.50
2023-03-01T17:39:40.052Z,6.40
2023-03-01T17:46:22.368Z,6.20
2023-03-01T17:53:09.540Z,6.00
2023-03-01T17:59:51.813Z,5.90
2023-03-01T18:06:37.227Z,5.80
2023-03-01T18:13:19.619Z,5.70
2023-03-01T18:20:02.035Z,5.60
2023-03-01T18:26:44.411Z,5.50
2023-03-01T18:33:27.185Z,5.40
2023-03-01T18:40:10.298Z,5.20
2023-03-01T18:46:52.909Z,5.00
2023-03-01T18:53:35.397Z,4.70
2023-03-01T19:00:18.602Z,4.50
2023-03-01T19:07:02.123Z,4.40
2023-03-01T19:13:46.164Z,4.30
2023-03-01T19:20:28.399Z,4.10
2023-03-01T19:27:10.733Z,3.90
2023-03-01T19:33:57.049Z,3.70
2023-03-01T19:40:44.757Z,3.60
2023-03-01T19:47:27.167Z,3.50
2023-03-01T19:54:11.631Z,3.40
2023-03-01T20:01:00.751Z,3.30
2023-03-01T20:07:44.574Z,3.30
2023-03-01T20:14:27.609Z,3.30
2023-03-01T20:21:22.827Z,3.40
2023-03-01T20:28:06.158Z,3.70
2023-03-01T20:34:49.237Z,3.90
2023-03-01T20:41:31.668Z,4.00
2023-03-01T20:48:14.109Z,4.00
2023-03-01T20:54:56.546Z,4.10
2023-03-01T21:01:40.119Z,3.80
2023-03-01T21:08:22.980Z,3.70
2023-03-01T21:15:05.863Z,3.80
2023-03-01T21:21:48.377Z,3.80
2023-03-01T21:28:33.188Z,3.80
2023-03-01T21:35:15.616Z,3.70
2023-03-01T21:41:59.639Z,3.50
2023-03-01T21:48:44.278Z,3.80
2023-03-01T21:55:27.690Z,3.80
2023-03-01T22:02:14.306Z,3.50
2023-03-01T22:09:04.806Z,3.30
2023-03-01T22:15:47.465Z,3.20
2023-03-01T22:22:29.762Z,3.30
2023-03-01T22:29:16.129Z,3.40
2023-03-01T22:35:58.520Z,3.50
2023-03-01T22:42:41.184Z,3.50
2023-03-01T22:49:23.779Z,3.40
2023-03-01T22:56:18.334Z,3.10
2023-03-01T23:03:00.885Z,3.00
2023-03-01T23:09:43.301Z,2.80
2023-03-01T23:16:25.847Z,2.70
2023-03-01T23:23:08.999Z,2.60
2023-03-01T23:36:35.620Z,2.50
2023-03-01T23:43:18.109Z,2.20
2023-03-01T23:50:00.390Z,2.10
2023-03-01T23:56:44.105Z,2.20
